createdAt,value
2022-11-29T00:00:08.701Z,15.43
2022-11-29T00:02:40.094Z,15.15
2022-11-29T00:05:08.898Z,15.32
2022-11-29T00:07:38.918Z,14.70
2022-11-29T00:10:08.525Z,15.35
2022-11-29T00:12:37.251Z,15.30
2022-11-29T00:15:06.093Z,15.05
2022-11-29T00:17:35.034Z,15.50
2022-11-29T00:20:03.181Z,15.00
2022-11-29T00:22:32.889Z,15.15
2022-11-29T00:25:05.416Z,14.65
2022-11-29T00:27:34.099Z,15.32
2022-11-29T00:30:02.689Z,15.98
2022-11-29T00:32:31.868Z,15.10
2022-11-29T00:35:03.997Z,15.80
2022-11-29T00:37:34.349Z,15.63
2022-11-29T00:40:03.296Z,15.80
2022-11-29T00:42:32.515Z,16.55
2022-11-29T00:45:01.318Z,16.70
2022-11-29T00:47:29.742Z,16.60
2022-11-29T00:49:57.561Z,16.98
2022-11-29T00:52:27.098Z,16.85
2022-11-29T00:54:55.260Z,16.80
2022-11-29T00:57:22.915Z,15.85
2022-11-29T00:59:50.786Z,16.70
2022-11-29T01:02:19.523Z,17.35
2022-11-29T01:04:46.502Z,17.48
2022-11-29T01:07:13.231Z,17.60
2022-11-29T01:09:39.766Z,17.98
2022-11-29T01:12:06.571Z,17.27
2022-11-29T01:14:33.150Z,18.58
2022-11-29T01:16:59.702Z,17.02
2022-11-29T01:19:26.255Z,17.77
2022-11-29T01:21:52.845Z,18.30
2022-11-29T01:24:19.357Z,17.95
2022-11-29T01:26:45.919Z,18.23
2022-11-29T01:29:13.098Z,18.17
2022-11-29T01:31:39.676Z,18.95
2022-11-29T01:34:07.137Z,18.92
2022-11-29T01:36:35.273Z,19.88
2022-11-29T01:39:04.149Z,20.85
2022-11-29T01:41:33.173Z,21.35
2022-11-29T01:44:25.778Z,22.98
2022-11-29T01:46:54.550Z,20.60
2022-11-29T01:49:42.575Z,20.58
2022-11-29T01:52:16.399Z,20.27
2022-11-29T01:54:47.026Z,19.73
2022-11-29T01:57:14.382Z,19.92
2022-11-29T01:59:45.525Z,21.70
2022-11-29T02:02:40.168Z,21.80
2022-11-29T02:05:07.816Z,21.45
2022-11-29T02:07:34.493Z,21.00
2022-11-29T02:10:02.233Z,20.10
2022-11-29T02:12:50.591Z,21.60
2022-11-29T02:15:52.036Z,21.08
2022-11-29T02:18:46.672Z,21.23
2022-11-29T02:21:44.268Z,21.45
2022-11-29T02:24:28.811Z,22.00
2022-11-29T02:27:17.395Z,20.73
2022-11-29T02:30:07.675Z,22.02
2022-11-29T02:32:49.298Z,21.08
2022-11-29T02:35:28.509Z,23.10
2022-11-29T02:38:04.640Z,22.17
2022-11-29T02:40:59.821Z,20.90
2022-11-29T02:43:57.865Z,23.45
2022-11-29T02:46:51.553Z,22.77
2022-11-29T02:49:44.739Z,22.15
2022-11-29T02:52:50.214Z,21.13
2022-11-29T02:55:33.406Z,20.88
2022-11-29T02:58:16.725Z,23.02
2022-11-29T03:01:16.472Z,21.77
2022-11-29T03:04:00.867Z,22.00
2022-11-29T03:06:44.349Z,22.55
2022-11-29T03:09:42.771Z,21.17
2022-11-29T03:12:14.953Z,19.77
2022-11-29T03:14:47.612Z,20.25
2022-11-29T03:17:25.747Z,21.08
2022-11-29T03:20:16.969Z,20.88
2022-11-29T03:23:24.156Z,22.65
2022-11-29T03:25:57.284Z,21.92
2022-11-29T03:28:34.884Z,22.25
2022-11-29T03:31:05.871Z,20.65
2022-11-29T03:33:53.764Z,20.92
2022-11-29T03:36:29.056Z,21.17
2022-11-29T03:39:01.071Z,22.67
2022-11-29T03:41:36.578Z,18.42
2022-11-29T03:44:27.201Z,21.50
2022-11-29T03:47:02.142Z,18.23
2022-11-29T03:49:39.820Z,20.25
2022-11-29T03:52:42.188Z,19.08
2022-11-29T03:55:08.673Z,19.63
2022-11-29T03:58:04.876Z,20.55
2022-11-29T04:00:45.429Z,18.75
2022-11-29T04:03:25.572Z,18.83
2022-11-29T04:06:29.246Z,19.73
2022-11-29T04:09:46.891Z,19.70
2022-11-29T04:12:50.931Z,19.55
2022-11-29T04:15:29.645Z,20.23
2022-11-29T04:18:02.042Z,20.83
2022-11-29T04:20:50.412Z,19.80
2022-11-29T04:23:38.791Z,20.02
2022-11-29T04:26:35.022Z,19.58
2022-11-29T04:29:34.362Z,17.67
2022-11-29T04:32:26.662Z,18.95
2022-11-29T04:35:09.223Z,19.27
2022-11-29T04:38:00.056Z,19.23
2022-11-29T04:41:01.283Z,18.55
2022-11-29T04:44:05.177Z,18.83
2022-11-29T04:46:37.728Z,18.23
2022-11-29T04:49:42.118Z,18.85
2022-11-29T04:52:27.618Z,17.17
2022-11-29T04:55:08.076Z,18.63
2022-11-29T04:57:44.892Z,16.77
2022-11-29T05:00:19.929Z,17.55
2022-11-29T05:02:49.733Z,19.02
2022-11-29T05:05:46.332Z,17.95
2022-11-29T05:08:46.543Z,16.63
2022-11-29T05:11:26.291Z,13.60
2022-11-29T05:14:15.366Z,17.10
2022-11-29T05:17:12.862Z,13.00
2022-11-29T05:19:55.415Z,16.60
2022-11-29T05:22:34.266Z,15.63
2022-11-29T05:25:24.412Z,17.98
2022-11-29T05:28:02.501Z,19.75
2022-11-29T05:31:01.324Z,19.20
2022-11-29T05:33:55.596Z,18.23
2022-11-29T05:38:54.462Z,14.75
2022-11-29T05:41:45.460Z,16.50
2022-11-29T05:44:53.455Z,16.70
2022-11-29T05:47:31.556Z,15.65
2022-11-29T05:50:04.242Z,16.88
2022-11-29T05:52:43.921Z,15.35
2022-11-29T05:55:22.243Z,17.63
2022-11-29T05:58:03.222Z,16.58
2022-11-29T06:00:40.923Z,17.25
2022-11-29T06:03:17.820Z,15.93
2022-11-29T06:05:57.443Z,18.48
2022-11-29T06:08:47.808Z,18.13
2022-11-29T06:11:21.824Z,16.95
2022-11-29T06:14:00.133Z,17.92
2022-11-29T06:16:56.972Z,16.90
2022-11-29T06:19:42.312Z,19.15
2022-11-29T06:22:39.831Z,18.23
2022-11-29T06:25:24.230Z,18.63
2022-11-29T06:28:28.455Z,17.52
2022-11-29T06:31:08.513Z,19.40
2022-11-29T06:33:56.915Z,17.27
2022-11-29T06:36:31.704Z,17.25
2022-11-29T06:38:58.426Z,17.73
2022-11-29T06:41:25.350Z,17.10
2022-11-29T06:43:52.255Z,17.00
2022-11-29T06:46:37.468Z,15.52
2022-11-29T06:49:06.673Z,17.75
2022-11-29T06:51:44.200Z,17.55
2022-11-29T06:54:38.587Z,18.45
2022-11-29T06:57:31.456Z,15.60
2022-11-29T07:00:20.433Z,14.18
2022-11-29T07:03:34.497Z,17.98
2022-11-29T07:06:08.279Z,10.05
2022-11-29T07:11:01.587Z,13.90
2022-11-29T07:13:28.376Z,14.05
2022-11-29T07:15:54.872Z,14.30
2022-11-29T07:18:43.005Z,13.95
2022-11-29T07:21:35.492Z,15.73
2022-11-29T07:24:40.490Z,15.27
2022-11-29T07:27:10.578Z,15.20
2022-11-29T07:29:45.870Z,15.80
2022-11-29T07:32:44.643Z,16.40
2022-11-29T07:35:33.535Z,18.33
2022-11-29T07:38:10.105Z,21.35
2022-11-29T07:40:51.277Z,20.40
2022-11-29T07:43:36.161Z,18.27
2022-11-29T07:46:02.819Z,18.42
2022-11-29T07:48:29.330Z,18.27
2022-11-29T07:50:56.800Z,20.63
2022-11-29T07:53:23.889Z,20.98
2022-11-29T07:55:50.533Z,22.48
2022-11-29T07:58:19.613Z,29.63
2022-11-29T08:00:46.600Z,26.92
2022-11-29T08:03:13.220Z,26.55
2022-11-29T08:05:44.656Z,19.95
2022-11-29T08:08:11.126Z,24.10
2022-11-29T08:10:38.545Z,22.33
2022-11-29T08:13:05.081Z,27.70
2022-11-29T08:15:31.635Z,28.25
2022-11-29T08:17:58.250Z,23.38
2022-11-29T08:20:24.881Z,23.15
2022-11-29T08:22:55.964Z,30.17
2022-11-29T08:25:22.719Z,29.83
2022-11-29T08:27:49.508Z,29.10
2022-11-29T08:30:18.726Z,27.83
2022-11-29T08:32:51.145Z,24.60
2022-11-29T08:35:19.551Z,29.43
2022-11-29T08:37:46.084Z,21.63
2022-11-29T08:40:13.588Z,27.48
2022-11-29T08:42:40.149Z,25.23
2022-11-29T08:45:07.708Z,27.65
2022-11-29T08:47:37.168Z,24.75
2022-11-29T08:50:07.340Z,27.80
2022-11-29T08:52:54.730Z,27.27
2022-11-29T08:55:23.836Z,24.58
2022-11-29T08:57:51.482Z,28.55
2022-11-29T09:00:19.113Z,27.17
2022-11-29T09:02:45.725Z,26.10
2022-11-29T09:05:12.290Z,28.52
2022-11-29T09:07:39.307Z,29.00
2022-11-29T09:10:08.354Z,28.60
2022-11-29T09:12:36.432Z,26.92
2022-11-29T09:15:09.287Z,28.08
2022-11-29T09:17:36.171Z,27.83
2022-11-29T09:20:03.212Z,28.65
2022-11-29T09:22:29.821Z,27.02
2022-11-29T09:24:56.324Z,26.63
2022-11-29T09:27:22.897Z,27.95
2022-11-29T09:29:49.425Z,25.77
2022-11-29T09:32:16.033Z,24.88
2022-11-29T09:34:42.711Z,24.63
2022-11-29T09:37:09.308Z,25.35
2022-11-29T09:39:35.866Z,26.73
2022-11-29T09:42:23.348Z,24.60
2022-11-29T09:45:07.564Z,26.42
2022-11-29T09:47:52.550Z,23.98
2022-11-29T09:50:44.093Z,22.75
2022-11-29T09:53:29.432Z,23.00
2022-11-29T09:56:12.264Z,25.40
2022-11-29T09:59:05.681Z,22.20
2022-11-29T10:01:40.142Z,24.48
2022-11-29T10:04:14.441Z,23.10
2022-11-29T10:06:45.724Z,23.92
2022-11-29T10:09:24.335Z,23.77
2022-11-29T10:12:06.878Z,21.77
2022-11-29T10:14:42.854Z,22.02
2022-11-29T10:17:40.397Z,23.65
2022-11-29T10:20:17.839Z,24.30
2022-11-29T10:23:04.628Z,24.33
2022-11-29T10:25:42.059Z,24.15
2022-11-29T10:28:14.440Z,24.38
2022-11-29T10:30:42.619Z,24.80
2022-11-29T10:33:22.106Z,22.30
2022-11-29T10:35:52.768Z,19.27
2022-11-29T10:38:34.497Z,19.63
2022-11-29T10:41:08.315Z,19.25
2022-11-29T10:43:37.310Z,18.60
2022-11-29T10:46:04.820Z,21.15
2022-11-29T10:48:34.119Z,19.45
2022-11-29T10:51:01.556Z,16.52
2022-11-29T10:53:36.180Z,16.13
2022-11-29T10:56:08.401Z,16.35
2022-11-29T10:58:35.851Z,15.70
2022-11-29T11:01:07.766Z,18.20
2022-11-29T11:04:07.288Z,17.80
2022-11-29T11:06:56.661Z,18.13
2022-11-29T11:10:03.042Z,14.98
2022-11-29T11:12:32.399Z,17.05
2022-11-29T11:15:28.400Z,19.73
2022-11-29T11:18:00.907Z,15.23
2022-11-29T11:20:30.465Z,15.23
2022-11-29T11:23:05.391Z,17.38
2022-11-29T11:25:38.088Z,15.70
2022-11-29T11:28:22.087Z,16.73
2022-11-29T11:33:21.825Z,15.73
2022-11-29T11:36:00.788Z,13.95
2022-11-29T11:38:27.600Z,17.33
2022-11-29T11:41:21.194Z,15.82
2022-11-29T11:43:59.201Z,15.00
2022-11-29T11:47:01.932Z,19.52
2022-11-29T11:49:45.879Z,11.63
2022-11-29T11:54:59.101Z,13.25
2022-11-29T11:57:26.654Z,12.77
2022-11-29T11:59:55.721Z,9.48
2022-11-29T12:02:48.367Z,9.73
2022-11-29T12:05:19.256Z,9.50
2022-11-29T12:08:08.692Z,9.18
2022-11-29T12:10:39.860Z,8.27
2022-11-29T12:13:16.062Z,7.75
2022-11-29T12:15:46.507Z,7.20
2022-11-29T12:18:21.065Z,18.65
2022-11-29T12:21:11.700Z,9.35
2022-11-29T12:23:52.751Z,7.68
2022-11-29T12:26:55.316Z,7.63
2022-11-29T12:29:15.817Z,6.78
2022-11-29T12:31:55.103Z,7.50
2022-11-29T12:34:43.755Z,10.82
2022-11-29T12:37:41.487Z,8.85
2022-11-29T12:40:24.762Z,6.70
2022-11-29T12:43:00.212Z,6.88
2022-11-29T12:45:58.581Z,6.03
2022-11-29T12:48:54.906Z,6.90
2022-11-29T12:51:55.490Z,6.90
2022-11-29T12:54:41.581Z,6.13
2022-11-29T12:57:26.633Z,6.90
2022-11-29T13:00:16.586Z,7.07
2022-11-29T13:03:28.077Z,6.78
2022-11-29T13:06:28.519Z,7.75
2022-11-29T13:09:30.372Z,7.13
2022-11-29T13:12:10.558Z,6.93
2022-11-29T13:14:55.916Z,6.43
2022-11-29T13:17:25.454Z,7.20
2022-11-29T13:20:10.542Z,7.47
2022-11-29T13:22:48.150Z,7.35
2022-11-29T13:25:23.014Z,7.72
2022-11-29T13:28:07.225Z,7.55
2022-11-29T13:30:35.166Z,9.98
2022-11-29T13:33:05.675Z,11.57
2022-11-29T13:35:40.409Z,14.07
2022-11-29T13:38:23.457Z,13.20
2022-11-29T13:40:56.011Z,12.10
2022-11-29T13:43:45.569Z,10.38
2022-11-29T13:46:37.026Z,13.60
2022-11-29T13:49:03.581Z,14.32
2022-11-29T13:51:40.542Z,13.27
2022-11-29T13:54:28.572Z,14.75
2022-11-29T13:57:09.641Z,14.70
2022-11-29T13:59:44.253Z,14.40
2022-11-29T14:02:32.193Z,12.57
2022-11-29T14:04:59.251Z,13.23
2022-11-29T14:07:26.657Z,12.55
2022-11-29T14:10:06.997Z,11.40
2022-11-29T14:12:52.459Z,11.65
2022-11-29T14:15:31.214Z,13.15
2022-11-29T14:18:01.255Z,13.50
2022-11-29T14:20:28.852Z,11.30
2022-11-29T14:23:04.593Z,11.57
2022-11-29T14:25:52.301Z,12.05
2022-11-29T14:28:22.313Z,11.90
2022-11-29T14:30:53.731Z,13.70
2022-11-29T14:33:49.053Z,11.45
2022-11-29T14:36:18.521Z,11.82
2022-11-29T14:38:51.455Z,14.52
2022-11-29T14:41:37.333Z,11.75
2022-11-29T14:44:14.146Z,11.20
2022-11-29T14:46:40.922Z,12.85
2022-11-29T14:49:25.313Z,11.48
2022-11-29T14:52:10.027Z,11.50
2022-11-29T14:55:10.838Z,10.07
2022-11-29T14:57:52.822Z,10.70
2022-11-29T15:00:34.797Z,10.18
2022-11-29T15:03:09.173Z,9.68
2022-11-29T15:05:39.091Z,9.77
2022-11-29T15:08:13.800Z,8.70
2022-11-29T15:10:44.581Z,8.75
2022-11-29T15:13:15.266Z,8.68
2022-11-29T15:16:05.762Z,9.00
2022-11-29T15:18:41.450Z,8.93
2022-11-29T15:22:03.923Z,11.05
2022-11-29T15:24:31.185Z,10.02
2022-11-29T15:26:59.813Z,10.60
2022-11-29T15:29:28.214Z,8.25
2022-11-29T15:31:58.412Z,10.20
2022-11-29T15:34:32.405Z,10.02
2022-11-29T15:36:59.987Z,10.90
2022-11-29T15:39:37.988Z,11.05
2022-11-29T15:42:11.973Z,14.75
2022-11-29T15:47:20.892Z,15.23
2022-11-29T15:49:47.798Z,15.55
2022-11-29T15:52:24.280Z,16.33
2022-11-29T15:54:59.290Z,13.98
2022-11-29T15:57:31.619Z,14.18
2022-11-29T16:00:04.367Z,14.73
2022-11-29T16:02:34.971Z,13.93
2022-11-29T16:05:31.722Z,13.70
2022-11-29T16:08:04.987Z,12.23
2022-11-29T16:10:43.647Z,15.55
2022-11-29T16:13:25.633Z,15.45
2022-11-29T16:16:06.889Z,14.18
2022-11-29T16:18:33.641Z,15.02
2022-11-29T16:21:02.472Z,23.02
2022-11-29T16:23:42.804Z,18.60
2022-11-29T16:26:23.748Z,18.30
2022-11-29T16:28:52.446Z,14.85
2022-11-29T16:31:21.570Z,15.13
2022-11-29T16:33:50.558Z,15.75
2022-11-29T16:36:24.384Z,15.80
2022-11-29T16:39:08.803Z,16.27
2022-11-29T16:41:38.972Z,16.40
2022-11-29T16:44:26.495Z,18.40
2022-11-29T16:47:30.419Z,16.58
2022-11-29T16:50:03.076Z,18.05
2022-11-29T16:52:33.902Z,17.95
2022-11-29T16:55:00.878Z,19.50
2022-11-29T16:57:28.811Z,22.80
2022-11-29T16:59:55.446Z,22.15
2022-11-29T17:02:22.506Z,20.95
2022-11-29T17:04:50.488Z,19.15
2022-11-29T17:07:28.116Z,17.25
2022-11-29T17:09:55.168Z,17.52
2022-11-29T17:12:22.211Z,18.40
2022-11-29T17:14:48.780Z,18.92
2022-11-29T17:17:16.693Z,19.45
2022-11-29T17:19:43.283Z,18.60
2022-11-29T17:22:10.267Z,15.80
2022-11-29T17:24:41.068Z,17.35
2022-11-29T17:27:09.991Z,21.13
2022-11-29T17:29:36.539Z,16.40
2022-11-29T17:32:03.308Z,15.52
2022-11-29T17:34:30.150Z,15.88
2022-11-29T17:36:57.507Z,17.38
2022-11-29T17:39:24.085Z,14.90
2022-11-29T17:41:50.759Z,16.05
2022-11-29T17:44:17.457Z,15.05
2022-11-29T17:46:44.006Z,16.20
2022-11-29T17:49:10.833Z,16.00
2022-11-29T17:51:54.302Z,16.70
2022-11-29T17:54:24.393Z,18.10
2022-11-29T17:56:51.901Z,15.65
2022-11-29T17:59:18.598Z,18.95
2022-11-29T18:01:47.198Z,16.95
2022-11-29T18:04:14.006Z,18.10
2022-11-29T18:06:41.124Z,17.83
2022-11-29T18:09:10.453Z,17.77
2022-11-29T18:11:46.988Z,19.95
2022-11-29T18:14:17.070Z,17.92
2022-11-29T18:16:45.394Z,18.63
2022-11-29T18:19:14.670Z,19.45
2022-11-29T18:21:41.214Z,22.90
2022-11-29T18:24:08.341Z,22.08
2022-11-29T18:26:36.605Z,21.85
2022-11-29T18:29:04.858Z,45.95
2022-11-29T18:31:34.097Z,21.10
2022-11-29T18:34:02.583Z,22.42
2022-11-29T18:36:31.996Z,20.63
2022-11-29T18:39:01.095Z,19.10
2022-11-29T18:41:29.521Z,20.00
2022-11-29T18:43:58.952Z,21.25
2022-11-29T18:46:26.428Z,21.95
2022-11-29T18:48:52.992Z,23.33
2022-11-29T18:51:20.704Z,22.60
2022-11-29T18:53:47.613Z,22.08
2022-11-29T18:56:22.328Z,20.88
2022-11-29T18:58:58.617Z,21.10
2022-11-29T19:01:27.629Z,25.30
2022-11-29T19:03:56.725Z,22.63
2022-11-29T19:06:25.777Z,21.35
2022-11-29T19:08:53.419Z,22.25
2022-11-29T19:11:23.011Z,25.10
2022-11-29T19:13:56.296Z,23.55
2022-11-29T19:16:24.450Z,21.95
2022-11-29T19:18:52.802Z,24.48
2022-11-29T19:21:20.854Z,23.52
2022-11-29T19:23:55.867Z,22.83
2022-11-29T19:26:25.152Z,23.58
2022-11-29T19:28:52.111Z,25.90
2022-11-29T19:31:20.419Z,25.13
2022-11-29T19:33:47.394Z,26.80
2022-11-29T19:36:19.943Z,26.90
2022-11-29T19:38:51.748Z,27.60
2022-11-29T19:43:47.462Z,25.48
2022-11-29T19:46:19.777Z,25.80
2022-11-29T19:48:47.493Z,27.48
2022-11-29T19:51:17.428Z,28.85
2022-11-29T19:53:44.906Z,27.95
2022-11-29T19:56:14.178Z,26.50
2022-11-29T19:58:40.979Z,26.75
2022-11-29T20:01:11.819Z,26.27
2022-11-29T20:03:38.803Z,26.88
2022-11-29T20:06:05.461Z,27.40
2022-11-29T20:08:32.215Z,26.33
2022-11-29T20:11:10.864Z,25.80
2022-11-29T20:13:38.773Z,26.92
2022-11-29T20:16:09.724Z,26.85
2022-11-29T20:18:39.248Z,27.50
2022-11-29T20:21:08.157Z,26.88
2022-11-29T20:23:34.978Z,27.65
2022-11-29T20:26:01.951Z,25.38
2022-11-29T20:28:28.531Z,25.65
2022-11-29T20:30:56.649Z,25.50
2022-11-29T20:33:25.047Z,26.50
2022-11-29T20:36:06.665Z,25.83
2022-11-29T20:38:49.135Z,27.00
2022-11-29T20:41:24.836Z,26.77
2022-11-29T20:43:56.670Z,27.58
2022-11-29T20:46:25.587Z,25.02
2022-11-29T20:48:57.194Z,28.02
2022-11-29T20:53:59.394Z,26.85
2022-11-29T20:56:27.476Z,27.20
2022-11-29T20:58:54.501Z,26.83
2022-11-29T21:01:21.023Z,27.70
2022-11-29T21:03:47.569Z,27.58
2022-11-29T21:06:14.128Z,28.65
2022-11-29T21:08:40.707Z,28.83
2022-11-29T21:11:10.290Z,27.67
2022-11-29T21:13:37.135Z,30.00
2022-11-29T21:16:04.663Z,35.83
2022-11-29T21:18:32.304Z,32.85
2022-11-29T21:21:24.660Z,28.63
2022-11-29T21:24:06.693Z,30.80
2022-11-29T21:26:41.925Z,29.77
2022-11-29T21:29:12.590Z,33.30
2022-11-29T21:31:39.543Z,29.67
2022-11-29T21:34:06.172Z,28.65
2022-11-29T21:36:32.660Z,28.88
2022-11-29T21:39:03.569Z,28.77
2022-11-29T21:41:31.588Z,29.08
2022-11-29T21:44:06.676Z,27.35
2022-11-29T21:46:34.754Z,29.40
2022-11-29T21:49:01.279Z,27.55
2022-11-29T21:51:27.762Z,27.58
2022-11-29T21:53:54.313Z,28.55
2022-11-29T21:56:20.893Z,28.70
2022-11-29T21:58:47.380Z,27.70
2022-11-29T22:01:19.013Z,27.40
2022-11-29T22:03:46.054Z,29.10
2022-11-29T22:06:20.484Z,28.95
2022-11-29T22:08:48.168Z,28.70
2022-11-29T22:11:30.389Z,28.90
2022-11-29T22:14:18.330Z,27.65
2022-11-29T22:16:51.997Z,27.70
2022-11-29T22:19:29.249Z,28.75
2022-11-29T22:22:00.995Z,29.00
2022-11-29T22:24:33.687Z,28.98
2022-11-29T22:27:01.590Z,30.00
2022-11-29T22:29:29.256Z,28.58
2022-11-29T22:31:57.480Z,28.13
2022-11-29T22:34:26.621Z,30.10
2022-11-29T22:36:53.331Z,28.73
2022-11-29T22:39:19.855Z,30.25
2022-11-29T22:41:52.263Z,29.75
2022-11-29T22:46:47.061Z,28.08
2022-11-29T22:49:13.747Z,30.05
2022-11-29T22:51:40.420Z,29.73
2022-11-29T22:54:08.962Z,28.38
2022-11-29T22:56:38.529Z,27.48
2022-11-29T22:59:05.396Z,28.25
2022-11-29T23:01:34.840Z,29.92
2022-11-29T23:04:04.033Z,29.95
2022-11-29T23:06:33.119Z,28.42
2022-11-29T23:09:05.294Z,27.95
2022-11-29T23:11:31.851Z,28.33
2022-11-29T23:14:00.049Z,27.70
2022-11-29T23:16:28.488Z,27.08
2022-11-29T23:18:58.077Z,27.23
2022-11-29T23:21:33.296Z,26.50
2022-11-29T23:24:00.936Z,27.30
2022-11-29T23:26:33.890Z,26.30
2022-11-29T23:29:00.442Z,28.30
2022-11-29T23:31:27.124Z,26.73
2022-11-29T23:33:53.928Z,26.45
2022-11-29T23:36:20.754Z,26.60
2022-11-29T23:38:48.348Z,26.50
2022-11-29T23:41:14.901Z,29.25
2022-11-29T23:43:41.908Z,28.20
2022-11-29T23:46:12.201Z,27.90
2022-11-29T23:48:38.937Z,27.90
2022-11-29T23:51:05.509Z,28.00
2022-11-29T23:53:32.880Z,27.58
2022-11-29T23:56:01.604Z,25.55
2022-11-29T23:58:29.324Z,26.30
